sensor_id;sensor_type;location;lat;lon;timestamp;pressure;altitude;pressure_sealevel;temperature;humidity
61384;BME280;63511;49.346;8.798;2023-03-22T00:01:38;100053.94;;;9.93;77.79
61384;BME280;63511;49.346;8.798;2023-03-22T00:04:05;100050.69;;;9.69;78.57
61384;BME280;63511;49.346;8.798;2023-03-22T00:06:32;100054.97;;;9.70;78.94
61384;BME280;63511;49.346;8.798;2023-03-22T00:08:58;100056.34;;;9.15;81.46
61384;BME280;63511;49.346;8.798;2023-03-22T00:11:24;100045.41;;;9.28;79.75
61384;BME280;63511;49.346;8.798;2023-03-22T00:13:52;100049.91;;;9.57;78.86
61384;BME280;63511;49.346;8.798;2023-03-22T00:16:19;100049.06;;;9.45;79.41
61384;BME280;63511;49.346;8.798;2023-03-22T00:18:45;100045.53;;;9.29;79.33
61384;BME280;63511;49.346;8.798;2023-03-22T00:21:12;100036.88;;;9.51;77.96
61384;BME280;63511;49.346;8.798;2023-03-22T00:23:39;100044.75;;;9.55;77.86
61384;BME280;63511;49.346;8.798;2023-03-22T00:26:07;100038.22;;;9.46;78.87
61384;BME280;63511;49.346;8.798;2023-03-22T00:28:34;100042.75;;;9.63;78.78
61384;BME280;63511;49.346;8.798;2023-03-22T00:31:02;100044.00;;;9.69;78.17
61384;BME280;63511;49.346;8.798;2023-03-22T00:33:29;100040.91;;;9.35;80.62
61384;BME280;63511;49.346;8.798;2023-03-22T00:35:56;100039.84;;;9.32;80.14
61384;BME280;63511;49.346;8.798;2023-03-22T00:38:23;100040.47;;;9.16;80.43
61384;BME280;63511;49.346;8.798;2023-03-22T00:40:49;100036.94;;;9.39;79.27
61384;BME280;63511;49.346;8.798;2023-03-22T00:43:16;100040.94;;;9.24;79.25
61384;BME280;63511;49.346;8.798;2023-03-22T00:45:42;100038.44;;;8.87;80.49
61384;BME280;63511;49.346;8.798;2023-03-22T00:48:10;100039.63;;;9.29;79.72
61384;BME280;63511;49.346;8.798;2023-03-22T00:50:37;100029.13;;;9.48;78.94
61384;BME280;63511;49.346;8.798;2023-03-22T00:53:03;100025.34;;;9.16;80.41
61384;BME280;63511;49.346;8.798;2023-03-22T00:55:30;100020.34;;;9.29;80.35
61384;BME280;63511;49.346;8.798;2023-03-22T00:57:57;100019.13;;;9.11;80.74
61384;BME280;63511;49.346;8.798;2023-03-22T01:00:23;100013.53;;;9.28;81.01
61384;BME280;63511;49.346;8.798;2023-03-22T01:02:50;100009.34;;;9.54;79.05
61384;BME280;63511;49.346;8.798;2023-03-22T01:05:19;99997.88;;;9.32;79.48
61384;BME280;63511;49.346;8.798;2023-03-22T01:07:46;99997.91;;;9.46;80.41
61384;BME280;63511;49.346;8.798;2023-03-22T01:10:14;99998.78;;;9.59;79.34
61384;BME280;63511;49.346;8.798;2023-03-22T01:12:41;99992.03;;;9.71;78.93
61384;BME280;63511;49.346;8.798;2023-03-22T01:15:08;99988.63;;;9.71;79.14
61384;BME280;63511;49.346;8.798;2023-03-22T01:17:35;99987.59;;;9.67;78.77
61384;BME280;63511;49.346;8.798;2023-03-22T01:20:01;99980.97;;;9.69;78.26
61384;BME280;63511;49.346;8.798;2023-03-22T01:22:39;99987.66;;;9.69;78.75
61384;BME280;63511;49.346;8.798;2023-03-22T01:25:06;99982.59;;;9.56;79.32
61384;BME280;63511;49.346;8.798;2023-03-22T01:27:32;99985.66;;;9.38;81.06
61384;BME280;63511;49.346;8.798;2023-03-22T01:29:59;99985.94;;;9.81;78.97
61384;BME280;63511;49.346;8.798;2023-03-22T01:32:25;99986.31;;;9.61;79.54
61384;BME280;63511;49.346;8.798;2023-03-22T01:34:52;99973.53;;;9.84;78.91
61384;BME280;63511;49.346;8.798;2023-03-22T01:37:18;99978.06;;;9.90;78.34
61384;BME280;63511;49.346;8.798;2023-03-22T01:39:47;99975.56;;;9.90;78.47
61384;BME280;63511;49.346;8.798;2023-03-22T01:42:13;99981.03;;;9.45;79.88
61384;BME280;63511;49.346;8.798;2023-03-22T01:44:40;99970.22;;;9.72;79.03
61384;BME280;63511;49.346;8.798;2023-03-22T01:47:08;99967.38;;;9.41;80.92
61384;BME280;63511;49.346;8.798;2023-03-22T01:49:36;99973.09;;;9.14;82.22
61384;BME280;63511;49.346;8.798;2023-03-22T01:52:04;99977.16;;;9.36;80.86
61384;BME280;63511;49.346;8.798;2023-03-22T01:54:33;99971.88;;;9.33;81.04
61384;BME280;63511;49.346;8.798;2023-03-22T01:57:01;99971.75;;;9.57;80.15
61384;BME280;63511;49.346;8.798;2023-03-22T01:59:28;99964.78;;;9.66;79.01
61384;BME280;63511;49.346;8.798;2023-03-22T02:01:54;99975.56;;;9.38;79.26
61384;BME280;63511;49.346;8.798;2023-03-22T02:04:24;99974.81;;;9.39;80.35
61384;BME280;63511;49.346;8.798;2023-03-22T02:06:58;99964.63;;;9.38;79.76
61384;BME280;63511;49.346;8.798;2023-03-22T02:09:26;99967.59;;;8.94;82.58
61384;BME280;63511;49.346;8.798;2023-03-22T02:11:55;99969.44;;;8.97;82.22
61384;BME280;63511;49.346;8.798;2023-03-22T02:17:21;99965.72;;;9.42;81.42
61384;BME280;63511;49.346;8.798;2023-03-22T02:20:03;99956.06;;;9.74;79.60
61384;BME280;63511;49.346;8.798;2023-03-22T02:22:39;99957.03;;;9.76;79.13
61384;BME280;63511;49.346;8.798;2023-03-22T02:25:36;99964.28;;;9.85;78.94
61384;BME280;63511;49.346;8.798;2023-03-22T02:31:01;99958.97;;;9.67;79.37
61384;BME280;63511;49.346;8.798;2023-03-22T02:36:46;99956.44;;;10.06;77.89
61384;BME280;63511;49.346;8.798;2023-03-22T02:39:22;99958.69;;;9.75;79.47
61384;BME280;63511;49.346;8.798;2023-03-22T02:41:57;99955.56;;;9.66;81.71
61384;BME280;63511;49.346;8.798;2023-03-22T02:44:31;99954.13;;;9.83;80.61
61384;BME280;63511;49.346;8.798;2023-03-22T02:47:03;99949.06;;;9.96;79.21
61384;BME280;63511;49.346;8.798;2023-03-22T02:49:32;99946.94;;;10.15;79.02
61384;BME280;63511;49.346;8.798;2023-03-22T02:52:03;99958.41;;;10.23;78.70
61384;BME280;63511;49.346;8.798;2023-03-22T02:54:36;99951.88;;;10.14;79.15
61384;BME280;63511;49.346;8.798;2023-03-22T02:57:07;99945.69;;;10.22;78.83
61384;BME280;63511;49.346;8.798;2023-03-22T02:59:35;99952.28;;;10.33;78.88
61384;BME280;63511;49.346;8.798;2023-03-22T03:02:03;99954.69;;;10.05;80.22
61384;BME280;63511;49.346;8.798;2023-03-22T03:04:31;99941.50;;;10.22;78.87
61384;BME280;63511;49.346;8.798;2023-03-22T03:06:59;99942.56;;;10.26;79.54
61384;BME280;63511;49.346;8.798;2023-03-22T03:09:27;99948.69;;;10.30;79.41
61384;BME280;63511;49.346;8.798;2023-03-22T03:11:57;99939.38;;;10.02;81.29
61384;BME280;63511;49.346;8.798;2023-03-22T03:14:23;99939.78;;;10.21;80.28
61384;BME280;63511;49.346;8.798;2023-03-22T03:16:53;99929.06;;;10.39;78.90
61384;BME280;63511;49.346;8.798;2023-03-22T03:19:22;99938.59;;;10.03;81.21
61384;BME280;63511;49.346;8.798;2023-03-22T03:21:53;99935.78;;;10.12;80.76
61384;BME280;63511;49.346;8.798;2023-03-22T03:24:25;99938.09;;;9.96;80.64
61384;BME280;63511;49.346;8.798;2023-03-22T03:26:54;99926.94;;;10.32;80.50
61384;BME280;63511;49.346;8.798;2023-03-22T03:29:27;99936.16;;;10.44;78.79
61384;BME280;63511;49.346;8.798;2023-03-22T03:31:55;99934.06;;;10.52;79.02
61384;BME280;63511;49.346;8.798;2023-03-22T03:34:25;99935.44;;;10.47;78.52
61384;BME280;63511;49.346;8.798;2023-03-22T03:36:55;99937.28;;;10.49;78.69
61384;BME280;63511;49.346;8.798;2023-03-22T03:39:23;99937.75;;;10.57;78.15
61384;BME280;63511;49.346;8.798;2023-03-22T03:41:52;99931.09;;;10.44;78.53
61384;BME280;63511;49.346;8.798;2023-03-22T03:44:20;99925.50;;;10.35;78.85
61384;BME280;63511;49.346;8.798;2023-03-22T03:46:48;99935.38;;;10.45;78.33
61384;BME280;63511;49.346;8.798;2023-03-22T03:49:15;99931.97;;;10.45;78.43
61384;BME280;63511;49.346;8.798;2023-03-22T03:51:45;99935.09;;;10.41;77.49
61384;BME280;63511;49.346;8.798;2023-03-22T03:54:12;99940.16;;;10.28;78.80
61384;BME280;63511;49.346;8.798;2023-03-22T03:56:38;99936.94;;;9.64;80.47
61384;BME280;63511;49.346;8.798;2023-03-22T03:59:05;99932.50;;;9.87;79.88
61384;BME280;63511;49.346;8.798;2023-03-22T04:01:33;99925.44;;;9.94;80.53
61384;BME280;63511;49.346;8.798;2023-03-22T04:04:00;99925.88;;;10.02;80.31
61384;BME280;63511;49.346;8.798;2023-03-22T04:06:27;99923.69;;;10.19;79.50
61384;BME280;63511;49.346;8.798;2023-03-22T04:08:53;99925.50;;;10.22;79.36
61384;BME280;63511;49.346;8.798;2023-03-22T04:11:20;99929.56;;;10.07;79.86
61384;BME280;63511;49.346;8.798;2023-03-22T04:13:47;99929.28;;;10.02;79.84
61384;BME280;63511;49.346;8.798;2023-03-22T04:16:13;99925.28;;;10.06;79.65
61384;BME280;63511;49.346;8.798;2023-03-22T04:18:39;99929.09;;;9.99;80.56
61384;BME280;63511;49.346;8.798;2023-03-22T04:21:07;99920.28;;;9.93;81.51
61384;BME280;63511;49.346;8.798;2023-03-22T04:23:36;99924.84;;;9.98;81.42
61384;BME280;63511;49.346;8.798;2023-03-22T04:26:02;99917.06;;;10.08;80.86
61384;BME280;63511;49.346;8.798;2023-03-22T04:28:29;99911.63;;;10.29;79.84
61384;BME280;63511;49.346;8.798;2023-03-22T04:30:57;99909.88;;;10.28;79.69
61384;BME280;63511;49.346;8.798;2023-03-22T04:33:24;99907.81;;;10.35;79.06
61384;BME280;63511;49.346;8.798;2023-03-22T04:35:50;99903.94;;;10.27;80.84
61384;BME280;63511;49.346;8.798;2023-03-22T04:38:22;99900.56;;;10.00;80.96
61384;BME280;63511;49.346;8.798;2023-03-22T04:40:49;99907.78;;;9.94;80.90
61384;BME280;63511;49.346;8.798;2023-03-22T04:43:15;99900.16;;;10.34;79.83
61384;BME280;63511;49.346;8.798;2023-03-22T04:45:43;99906.34;;;10.39;79.92
61384;BME280;63511;49.346;8.798;2023-03-22T04:48:10;99900.84;;;10.59;78.20
61384;BME280;63511;49.346;8.798;2023-03-22T04:50:37;99897.81;;;10.64;78.03
61384;BME280;63511;49.346;8.798;2023-03-22T04:53:03;99889.38;;;10.36;79.95
61384;BME280;63511;49.346;8.798;2023-03-22T04:55:31;99889.41;;;10.23;80.54
61384;BME280;63511;49.346;8.798;2023-03-22T04:57:58;99898.44;;;9.93;81.74
61384;BME280;63511;49.346;8.798;2023-03-22T05:00:26;99887.16;;;10.28;80.65
61384;BME280;63511;49.346;8.798;2023-03-22T05:02:54;99892.41;;;10.31;80.49
61384;BME280;63511;49.346;8.798;2023-03-22T05:05:20;99888.59;;;10.37;78.91
61384;BME280;63511;49.346;8.798;2023-03-22T05:07:46;99895.97;;;10.34;78.40
61384;BME280;63511;49.346;8.798;2023-03-22T05:10:13;99893.44;;;10.34;79.08
61384;BME280;63511;49.346;8.798;2023-03-22T05:12:41;99896.38;;;10.27;78.92
61384;BME280;63511;49.346;8.798;2023-03-22T05:15:07;99888.53;;;10.09;78.79
61384;BME280;63511;49.346;8.798;2023-03-22T05:17:34;99890.88;;;9.41;79.83
61384;BME280;63511;49.346;8.798;2023-03-22T05:20:00;99898.44;;;9.41;80.98
61384;BME280;63511;49.346;8.798;2023-03-22T05:22:33;99902.50;;;9.25;80.97
61384;BME280;63511;49.346;8.798;2023-03-22T05:25:02;99903.47;;;9.54;80.19
61384;BME280;63511;49.346;8.798;2023-03-22T05:27:28;99912.56;;;9.38;80.58
61384;BME280;63511;49.346;8.798;2023-03-22T05:30:00;99915.31;;;9.42;80.17
61384;BME280;63511;49.346;8.798;2023-03-22T05:32:27;99916.72;;;9.25;80.54
61384;BME280;63511;49.346;8.798;2023-03-22T05:34:53;99907.94;;;9.45;79.69
61384;BME280;63511;49.346;8.798;2023-03-22T05:37:19;99908.94;;;9.09;80.11
61384;BME280;63511;49.346;8.798;2023-03-22T05:39:46;99910.22;;;9.15;80.03
61384;BME280;63511;49.346;8.798;2023-03-22T05:42:12;99917.50;;;9.11;79.51
61384;BME280;63511;49.346;8.798;2023-03-22T05:44:39;99922.25;;;9.19;79.28
61384;BME280;63511;49.346;8.798;2023-03-22T05:47:06;99904.53;;;8.93;80.26
61384;BME280;63511;49.346;8.798;2023-03-22T05:49:33;99911.16;;;9.04;79.23
61384;BME280;63511;49.346;8.798;2023-03-22T05:51:59;99910.75;;;8.98;79.43
61384;BME280;63511;49.346;8.798;2023-03-22T05:54:30;99908.91;;;8.95;80.53
61384;BME280;63511;49.346;8.798;2023-03-22T05:56:56;99910.25;;;8.90;79.81
61384;BME280;63511;49.346;8.798;2023-03-22T05:59:22;99913.75;;;8.68;81.45
61384;BME280;63511;49.346;8.798;2023-03-22T06:01:49;99915.78;;;8.98;79.81
61384;BME280;63511;49.346;8.798;2023-03-22T06:04:17;99919.06;;;8.97;78.79
61384;BME280;63511;49.346;8.798;2023-03-22T06:06:45;99921.69;;;8.85;79.43
61384;BME280;63511;49.346;8.798;2023-03-22T06:09:11;99925.50;;;8.56;81.29
61384;BME280;63511;49.346;8.798;2023-03-22T06:11:38;99925.97;;;9.00;80.50
61384;BME280;63511;49.346;8.798;2023-03-22T06:14:04;99930.66;;;9.07;80.17
61384;BME280;63511;49.346;8.798;2023-03-22T06:16:31;99929.66;;;9.05;80.71
61384;BME280;63511;49.346;8.798;2023-03-22T06:18:57;99933.13;;;9.31;79.54
61384;BME280;63511;49.346;8.798;2023-03-22T06:21:25;99929.97;;;9.47;79.72
61384;BME280;63511;49.346;8.798;2023-03-22T06:23:52;99940.16;;;9.62;80.30
61384;BME280;63511;49.346;8.798;2023-03-22T06:26:18;99933.75;;;9.80;79.95
61384;BME280;63511;49.346;8.798;2023-03-22T06:28:44;99940.84;;;9.86;79.33
61384;BME280;63511;49.346;8.798;2023-03-22T06:31:11;99934.31;;;10.02;78.73
61384;BME280;63511;49.346;8.798;2023-03-22T06:33:37;99928.72;;;10.19;78.66
61384;BME280;63511;49.346;8.798;2023-03-22T06:36:04;99925.88;;;10.15;78.67
61384;BME280;63511;49.346;8.798;2023-03-22T06:38:31;99915.03;;;10.29;78.23
61384;BME280;63511;49.346;8.798;2023-03-22T06:40:58;99919.56;;;10.35;79.45
61384;BME280;63511;49.346;8.798;2023-03-22T06:43:24;99916.50;;;10.53;79.16
61384;BME280;63511;49.346;8.798;2023-03-22T06:45:51;99918.38;;;10.71;79.01
61384;BME280;63511;49.346;8.798;2023-03-22T06:48:17;99919.50;;;10.61;78.98
61384;BME280;63511;49.346;8.798;2023-03-22T06:50:43;99921.91;;;10.87;80.07
61384;BME280;63511;49.346;8.798;2023-03-22T06:53:12;99916.00;;;10.87;80.04
61384;BME280;63511;49.346;8.798;2023-03-22T06:55:40;99922.75;;;11.45;78.76
61384;BME280;63511;49.346;8.798;2023-03-22T06:58:06;99917.31;;;11.09;79.14
61384;BME280;63511;49.346;8.798;2023-03-22T07:00:32;99913.78;;;11.50;79.00
61384;BME280;63511;49.346;8.798;2023-03-22T07:02:59;99916.19;;;11.63;77.42
61384;BME280;63511;49.346;8.798;2023-03-22T07:05:25;99909.53;;;11.95;77.25
61384;BME280;63511;49.346;8.798;2023-03-22T07:07:52;99916.38;;;11.51;78.77
61384;BME280;63511;49.346;8.798;2023-03-22T07:10:18;99920.38;;;11.63;78.03
61384;BME280;63511;49.346;8.798;2023-03-22T07:12:46;99923.16;;;11.67;78.06
61384;BME280;63511;49.346;8.798;2023-03-22T07:15:14;99915.28;;;12.07;77.17
61384;BME280;63511;49.346;8.798;2023-03-22T07:17:41;99919.72;;;12.11;77.37
61384;BME280;63511;49.346;8.798;2023-03-22T07:20:08;99918.94;;;12.28;78.51
61384;BME280;63511;49.346;8.798;2023-03-22T07:22:34;99921.22;;;12.38;78.03
61384;BME280;63511;49.346;8.798;2023-03-22T07:25:01;99920.09;;;12.49;76.69
61384;BME280;63511;49.346;8.798;2023-03-22T07:27:27;99916.28;;;12.41;76.17
61384;BME280;63511;49.346;8.798;2023-03-22T07:29:55;99909.81;;;12.46;76.95
61384;BME280;63511;49.346;8.798;2023-03-22T07:32:21;99908.25;;;12.48;76.28
61384;BME280;63511;49.346;8.798;2023-03-22T07:34:48;99913.69;;;12.56;74.84
61384;BME280;63511;49.346;8.798;2023-03-22T07:37:14;99922.75;;;13.01;73.76
61384;BME280;63511;49.346;8.798;2023-03-22T07:39:40;99925.81;;;13.26;73.04
61384;BME280;63511;49.346;8.798;2023-03-22T07:42:07;99920.66;;;12.92;74.03
61384;BME280;63511;49.346;8.798;2023-03-22T07:44:33;99923.91;;;12.57;72.55
61384;BME280;63511;49.346;8.798;2023-03-22T07:47:01;99921.34;;;13.06;72.67
61384;BME280;63511;49.346;8.798;2023-03-22T07:49:27;99913.13;;;13.10;71.21
61384;BME280;63511;49.346;8.798;2023-03-22T07:51:55;99921.84;;;13.15;69.09
61384;BME280;63511;49.346;8.798;2023-03-22T07:54:21;99921.09;;;13.34;69.67
61384;BME280;63511;49.346;8.798;2023-03-22T07:56:47;99917.84;;;13.36;69.20
61384;BME280;63511;49.346;8.798;2023-03-22T07:59:14;99918.59;;;13.51;68.11
61384;BME280;63511;49.346;8.798;2023-03-22T08:01:40;99919.84;;;13.77;66.81
61384;BME280;63511;49.346;8.798;2023-03-22T08:04:08;99915.53;;;13.58;67.33
61384;BME280;63511;49.346;8.798;2023-03-22T08:06:35;99911.16;;;13.72;67.13
61384;BME280;63511;49.346;8.798;2023-03-22T08:09:02;99910.25;;;13.89;66.46
61384;BME280;63511;49.346;8.798;2023-03-22T08:11:28;99909.53;;;13.92;66.78
61384;BME280;63511;49.346;8.798;2023-03-22T08:13:55;99909.00;;;13.99;65.92
61384;BME280;63511;49.346;8.798;2023-03-22T08:16:21;99905.97;;;14.06;66.49
61384;BME280;63511;49.346;8.798;2023-03-22T08:18:48;99898.97;;;14.20;64.89
61384;BME280;63511;49.346;8.798;2023-03-22T08:21:15;99906.25;;;14.12;64.69
61384;BME280;63511;49.346;8.798;2023-03-22T08:23:42;99905.94;;;14.24;64.89
61384;BME280;63511;49.346;8.798;2023-03-22T08:26:08;99900.59;;;14.55;64.60
61384;BME280;63511;49.346;8.798;2023-03-22T08:28:35;99905.06;;;14.79;64.29
61384;BME280;63511;49.346;8.798;2023-03-22T08:31:04;99900.44;;;14.90;63.76
61384;BME280;63511;49.346;8.798;2023-03-22T08:33:34;99896.38;;;15.14;63.49
61384;BME280;63511;49.346;8.798;2023-03-22T08:36:04;99900.94;;;15.21;63.01
61384;BME280;63511;49.346;8.798;2023-03-22T08:38:32;99905.81;;;14.96;64.04
61384;BME280;63511;49.346;8.798;2023-03-22T08:40:59;99889.56;;;15.13;62.30
61384;BME280;63511;49.346;8.798;2023-03-22T08:43:25;99892.69;;;15.27;62.32
61384;BME280;63511;49.346;8.798;2023-03-22T08:45:52;99897.34;;;15.37;62.10
61384;BME280;63511;49.346;8.798;2023-03-22T08:48:18;99891.59;;;15.62;61.91
61384;BME280;63511;49.346;8.798;2023-03-22T08:50:44;99885.47;;;15.57;61.50
61384;BME280;63511;49.346;8.798;2023-03-22T08:53:20;99889.09;;;15.43;61.79
61384;BME280;63511;49.346;8.798;2023-03-22T08:55:47;99886.56;;;15.43;61.94
61384;BME280;63511;49.346;8.798;2023-03-22T08:58:15;99883.09;;;15.61;63.31
61384;BME280;63511;49.346;8.798;2023-03-22T09:00:44;99883.34;;;16.12;61.30
61384;BME280;63511;49.346;8.798;2023-03-22T09:03:11;99873.88;;;16.30;60.17
61384;BME280;63511;49.346;8.798;2023-03-22T09:05:37;99867.56;;;16.21;59.88
61384;BME280;63511;49.346;8.798;2023-03-22T09:08:04;99865.13;;;16.70;60.11
61384;BME280;63511;49.346;8.798;2023-03-22T09:10:31;99861.81;;;16.72;58.05
61384;BME280;63511;49.346;8.798;2023-03-22T09:12:58;99849.53;;;17.11;57.29
61384;BME280;63511;49.346;8.798;2023-03-22T09:15:25;99854.63;;;17.36;57.59
61384;BME280;63511;49.346;8.798;2023-03-22T09:17:51;99862.66;;;16.96;57.34
61384;BME280;63511;49.346;8.798;2023-03-22T09:20:18;99859.28;;;16.72;57.79
61384;BME280;63511;49.346;8.798;2023-03-22T09:22:49;99856.00;;;16.52;56.40
61384;BME280;63511;49.346;8.798;2023-03-22T09:25:15;99855.47;;;16.39;57.43
61384;BME280;63511;49.346;8.798;2023-03-22T09:27:42;99857.94;;;16.13;57.70
61384;BME280;63511;49.346;8.798;2023-03-22T09:30:10;99851.31;;;16.41;56.83
61384;BME280;63511;49.346;8.798;2023-03-22T09:32:36;99847.91;;;16.40;56.29
61384;BME280;63511;49.346;8.798;2023-03-22T09:35:03;99846.16;;;16.39;56.51
61384;BME280;63511;49.346;8.798;2023-03-22T09:37:30;99850.44;;;16.40;56.96
61384;BME280;63511;49.346;8.798;2023-03-22T09:39:56;99840.94;;;16.82;56.37
61384;BME280;63511;49.346;8.798;2023-03-22T09:42:25;99842.53;;;17.04;55.58
61384;BME280;63511;49.346;8.798;2023-03-22T09:44:54;99841.16;;;17.15;54.53
61384;BME280;63511;49.346;8.798;2023-03-22T09:47:24;99841.06;;;17.12;55.42
61384;BME280;63511;49.346;8.798;2023-03-22T09:49:57;99822.59;;;17.46;55.46
61384;BME280;63511;49.346;8.798;2023-03-22T09:52:25;99821.78;;;17.47;54.13
61384;BME280;63511;49.346;8.798;2023-03-22T09:54:52;99820.03;;;17.71;55.41
61384;BME280;63511;49.346;8.798;2023-03-22T09:57:21;99823.31;;;17.42;54.54
61384;BME280;63511;49.346;8.798;2023-03-22T09:59:52;99821.28;;;17.32;55.27
61384;BME280;63511;49.346;8.798;2023-03-22T10:02:30;99811.75;;;17.26;53.78
61384;BME280;63511;49.346;8.798;2023-03-22T10:05:02;99817.78;;;17.55;54.62
61384;BME280;63511;49.346;8.798;2023-03-22T10:07:30;99820.97;;;17.75;53.94
61384;BME280;63511;49.346;8.798;2023-03-22T10:10:05;99818.94;;;17.38;53.74
61384;BME280;63511;49.346;8.798;2023-03-22T10:12:33;99817.63;;;17.77;54.29
61384;BME280;63511;49.346;8.798;2023-03-22T10:15:08;99818.75;;;17.86;53.97
61384;BME280;63511;49.346;8.798;2023-03-22T10:17:37;99819.03;;;17.41;53.83
61384;BME280;63511;49.346;8.798;2023-03-22T10:20:06;99812.09;;;17.37;53.36
61384;BME280;63511;49.346;8.798;2023-03-22T10:22:37;99803.63;;;17.38;54.14
61384;BME280;63511;49.346;8.798;2023-03-22T10:25:06;99811.72;;;17.25;54.65
61384;BME280;63511;49.346;8.798;2023-03-22T10:27:33;99812.06;;;17.10;54.53
61384;BME280;63511;49.346;8.798;2023-03-22T10:30:02;99802.53;;;17.30;53.56
61384;BME280;63511;49.346;8.798;2023-03-22T10:32:29;99801.00;;;17.35;54.04
61384;BME280;63511;49.346;8.798;2023-03-22T10:35:00;99804.88;;;17.24;53.10
61384;BME280;63511;49.346;8.798;2023-03-22T10:37:28;99795.94;;;17.63;53.72
61384;BME280;63511;49.346;8.798;2023-03-22T10:39:57;99791.78;;;17.40;53.44
61384;BME280;63511;49.346;8.798;2023-03-22T10:42:25;99783.66;;;17.53;54.07
61384;BME280;63511;49.346;8.798;2023-03-22T10:44:53;99793.69;;;17.74;53.92
61384;BME280;63511;49.346;8.798;2023-03-22T10:47:25;99789.66;;;17.54;54.42
61384;BME280;63511;49.346;8.798;2023-03-22T10:49:52;99790.09;;;17.67;53.36
61384;BME280;63511;49.346;8.798;2023-03-22T10:55:09;99780.94;;;17.74;53.66
61384;BME280;63511;49.346;8.798;2023-03-22T10:57:35;99785.63;;;17.89;52.42
61384;BME280;63511;49.346;8.798;2023-03-22T11:00:04;99783.44;;;17.72;51.93
61384;BME280;63511;49.346;8.798;2023-03-22T11:02:33;99790.53;;;18.11;53.25
61384;BME280;63511;49.346;8.798;2023-03-22T11:05:01;99783.59;;;18.07;52.25
61384;BME280;63511;49.346;8.798;2023-03-22T11:07:29;99782.34;;;18.22;52.10
61384;BME280;63511;49.346;8.798;2023-03-22T11:09:57;99785.19;;;18.03;52.69
61384;BME280;63511;49.346;8.798;2023-03-22T11:12:25;99778.13;;;18.24;52.56
61384;BME280;63511;49.346;8.798;2023-03-22T11:14:52;99772.38;;;18.02;51.32
61384;BME280;63511;49.346;8.798;2023-03-22T11:17:18;99777.81;;;18.45;50.64
61384;BME280;63511;49.346;8.798;2023-03-22T11:19:49;99762.09;;;18.61;50.50
61384;BME280;63511;49.346;8.798;2023-03-22T11:22:18;99759.25;;;18.84;50.45
61384;BME280;63511;49.346;8.798;2023-03-22T11:24:46;99768.63;;;18.52;49.46
61384;BME280;63511;49.346;8.798;2023-03-22T11:27:16;99757.94;;;18.65;49.07
61384;BME280;63511;49.346;8.798;2023-03-22T11:29:46;99758.75;;;18.64;48.65
61384;BME280;63511;49.346;8.798;2023-03-22T11:32:20;99759.31;;;18.85;49.52
61384;BME280;63511;49.346;8.798;2023-03-22T11:34:47;99757.63;;;18.86;48.69
61384;BME280;63511;49.346;8.798;2023-03-22T11:37:15;99763.78;;;18.61;48.66
61384;BME280;63511;49.346;8.798;2023-03-22T11:39:44;99758.22;;;18.77;48.42
61384;BME280;63511;49.346;8.798;2023-03-22T11:42:13;99750.66;;;18.82;48.11
61384;BME280;63511;49.346;8.798;2023-03-22T11:44:43;99739.97;;;18.98;47.37
61384;BME280;63511;49.346;8.798;2023-03-22T11:47:13;99740.56;;;19.58;48.06
61384;BME280;63511;49.346;8.798;2023-03-22T11:49:42;99742.50;;;19.32;47.81
61384;BME280;63511;49.346;8.798;2023-03-22T11:52:11;99731.50;;;19.74;46.61
61384;BME280;63511;49.346;8.798;2023-03-22T11:54:40;99728.81;;;19.68;45.32
61384;BME280;63511;49.346;8.798;2023-03-22T11:57:10;99716.66;;;20.00;46.40
61384;BME280;63511;49.346;8.798;2023-03-22T11:59:39;99720.16;;;20.06;46.94
61384;BME280;63511;49.346;8.798;2023-03-22T12:02:13;99714.31;;;19.68;45.26
61384;BME280;63511;49.346;8.798;2023-03-22T12:04:42;99728.53;;;19.56;46.23
61384;BME280;63511;49.346;8.798;2023-03-22T12:07:11;99718.22;;;19.52;45.12
61384;BME280;63511;49.346;8.798;2023-03-22T12:09:38;99715.53;;;19.87;46.49
61384;BME280;63511;49.346;8.798;2023-03-22T12:12:08;99714.06;;;19.58;46.65
61384;BME280;63511;49.346;8.798;2023-03-22T12:14:39;99719.13;;;19.55;45.27
61384;BME280;63511;49.346;8.798;2023-03-22T12:17:09;99712.47;;;19.64;45.74
61384;BME280;63511;49.346;8.798;2023-03-22T12:19:50;99709.44;;;19.82;45.20
61384;BME280;63511;49.346;8.798;2023-03-22T12:22:20;99703.22;;;19.71;45.94
61384;BME280;63511;49.346;8.798;2023-03-22T12:24:46;99702.00;;;19.95;45.13
61384;BME280;63511;49.346;8.798;2023-03-22T12:27:14;99687.16;;;20.23;44.05
61384;BME280;63511;49.346;8.798;2023-03-22T12:29:43;99685.19;;;20.55;42.77
61384;BME280;63511;49.346;8.798;2023-03-22T12:32:13;99685.09;;;20.04;43.93
61384;BME280;63511;49.346;8.798;2023-03-22T12:34:42;99679.13;;;20.05;44.75
61384;BME280;63511;49.346;8.798;2023-03-22T12:37:13;99679.81;;;19.94;44.49
61384;BME280;63511;49.346;8.798;2023-03-22T12:39:45;99675.78;;;20.09;45.19
61384;BME280;63511;49.346;8.798;2023-03-22T12:42:15;99663.78;;;20.54;44.79
61384;BME280;63511;49.346;8.798;2023-03-22T12:44:43;99661.88;;;20.43;45.90
61384;BME280;63511;49.346;8.798;2023-03-22T12:47:12;99656.13;;;20.56;44.64
61384;BME280;63511;49.346;8.798;2023-03-22T12:49:42;99658.28;;;20.83;44.98
61384;BME280;63511;49.346;8.798;2023-03-22T12:52:14;99659.28;;;20.95;43.96
61384;BME280;63511;49.346;8.798;2023-03-22T12:54:42;99652.91;;;20.69;43.48
61384;BME280;63511;49.346;8.798;2023-03-22T12:57:09;99648.97;;;20.91;44.38
61384;BME280;63511;49.346;8.798;2023-03-22T12:59:36;99643.59;;;20.75;44.98
61384;BME280;63511;49.346;8.798;2023-03-22T13:02:04;99634.53;;;20.97;44.04
61384;BME280;63511;49.346;8.798;2023-03-22T13:04:45;99636.84;;;20.81;42.67
61384;BME280;63511;49.346;8.798;2023-03-22T13:07:29;99638.94;;;20.50;43.72
61384;BME280;63511;49.346;8.798;2023-03-22T13:09:57;99637.50;;;20.69;43.95
61384;BME280;63511;49.346;8.798;2023-03-22T13:12:25;99630.94;;;20.86;43.57
61384;BME280;63511;49.346;8.798;2023-03-22T13:14:52;99619.59;;;20.72;42.67
61384;BME280;63511;49.346;8.798;2023-03-22T13:17:31;99620.41;;;21.30;42.96
61384;BME280;63511;49.346;8.798;2023-03-22T13:20:00;99624.19;;;20.94;43.57